createdAt,value
2023-04-24T00:00:40.294Z,1.37
2023-04-24T00:01:40.379Z,1.50
2023-04-24T00:02:40.584Z,1.41
2023-04-24T00:03:40.659Z,1.26
2023-04-24T00:04:40.677Z,1.38
2023-04-24T00:05:40.581Z,1.65
2023-04-24T00:06:40.717Z,1.09
2023-04-24T00:07:40.706Z,1.41
2023-04-24T00:08:40.751Z,1.47
2023-04-24T00:09:41.160Z,1.01
2023-04-24T00:10:40.927Z,1.24
2023-04-24T00:11:40.928Z,1.36
2023-04-24T00:12:41.009Z,1.18
2023-04-24T00:13:41.095Z,1.23
2023-04-24T00:14:41.134Z,0.94
2023-04-24T00:15:41.186Z,1.68
2023-04-24T00:16:41.269Z,1.43
2023-04-24T00:17:41.311Z,1.28
2023-04-24T00:18:41.345Z,1.05
2023-04-24T00:19:41.560Z,1.32
2023-04-24T00:20:41.475Z,1.03
2023-04-24T00:21:41.504Z,1.04
2023-04-24T00:22:41.578Z,1.22
2023-04-24T00:23:41.630Z,1.11
2023-04-24T00:24:41.714Z,1.11
2023-04-24T00:25:41.788Z,1.25
2023-04-24T00:26:41.793Z,1.10
2023-04-24T00:27:41.890Z,1.19
2023-04-24T00:28:41.944Z,0.93
2023-04-24T00:29:42.197Z,1.18
2023-04-24T00:30:42.038Z,1.10
2023-04-24T00:31:42.109Z,1.32
2023-04-24T00:32:42.238Z,1.03
2023-04-24T00:33:42.200Z,0.88
2023-04-24T00:34:42.266Z,0.94
2023-04-24T00:35:42.314Z,0.65
2023-04-24T00:36:42.322Z,1.05
2023-04-24T00:37:42.318Z,0.92
2023-04-24T00:38:42.363Z,0.88
2023-04-24T00:39:42.661Z,0.89
2023-04-24T00:40:42.433Z,0.86
2023-04-24T00:41:42.470Z,0.86
2023-04-24T00:42:42.469Z,0.83
2023-04-24T00:43:42.488Z,0.96
2023-04-24T00:44:42.489Z,0.71
2023-04-24T00:45:42.521Z,0.70
2023-04-24T00:46:42.570Z,0.65
2023-04-24T00:47:42.567Z,0.75
2023-04-24T00:48:42.571Z,0.59
2023-04-24T00:49:42.721Z,0.75
2023-04-24T00:50:42.612Z,0.53
2023-04-24T00:51:42.591Z,0.62
2023-04-24T00:52:42.665Z,0.84
2023-04-24T00:53:42.645Z,0.65
2023-04-24T00:54:42.636Z,0.47
2023-04-24T00:55:42.698Z,0.88
2023-04-24T00:56:42.689Z,1.18
2023-04-24T00:57:42.704Z,0.79
2023-04-24T00:58:42.728Z,0.87
2023-04-24T00:59:42.825Z,0.68
2023-04-24T01:00:42.718Z,0.43
2023-04-24T01:01:42.747Z,0.63
2023-04-24T01:02:42.772Z,0.32
2023-04-24T01:03:42.803Z,0.56
2023-04-24T01:04:42.748Z,0.42
2023-04-24T01:05:42.692Z,0.54
2023-04-24T01:06:42.684Z,0.45
2023-04-24T01:07:42.694Z,0.63
2023-04-24T01:08:42.689Z,0.67
2023-04-24T01:09:42.991Z,0.54
2023-04-24T01:10:42.749Z,0.41
2023-04-24T01:11:42.723Z,0.45
2023-04-24T01:12:42.737Z,0.62
2023-04-24T01:13:42.749Z,0.48
2023-04-24T01:14:42.797Z,0.36
2023-04-24T01:15:42.959Z,0.53
2023-04-24T01:16:42.902Z,0.54
2023-04-24T01:17:42.911Z,0.55
2023-04-24T01:18:42.905Z,0.40
2023-04-24T01:19:43.132Z,0.51
2023-04-24T01:20:43.075Z,0.23
2023-04-24T01:21:43.142Z,0.41
2023-04-24T01:22:43.177Z,0.19
2023-04-24T01:23:43.197Z,0.49
2023-04-24T01:24:43.200Z,0.41
2023-04-24T01:25:43.202Z,0.50
2023-04-24T01:26:43.230Z,0.59
2023-04-24T01:27:43.245Z,0.37
2023-04-24T01:28:43.267Z,0.38
2023-04-24T01:29:43.419Z,0.43
2023-04-24T01:30:43.296Z,0.32
2023-04-24T01:31:43.350Z,0.59
2023-04-24T01:32:43.348Z,0.31
2023-04-24T01:33:43.344Z,0.27
2023-04-24T01:34:43.418Z,0.54
2023-04-24T01:35:43.398Z,0.45
2023-04-24T01:36:43.432Z,0.47
2023-04-24T01:37:43.444Z,0.33
2023-04-24T01:38:43.485Z,0.38
2023-04-24T01:39:43.785Z,0.37
2023-04-24T01:40:43.536Z,0.42
2023-04-24T01:41:43.537Z,0.36
2023-04-24T01:42:43.542Z,0.29
2023-04-24T01:43:43.574Z,0.43
2023-04-24T01:44:43.630Z,0.32
2023-04-24T01:45:43.629Z,0.27
2023-04-24T01:46:43.692Z,0.45
2023-04-24T01:47:43.717Z,0.27
2023-04-24T01:48:43.718Z,0.42
2023-04-24T01:49:43.955Z,0.60
2023-04-24T01:50:43.744Z,0.45
2023-04-24T01:51:43.787Z,0.41
2023-04-24T01:52:43.814Z,0.30
2023-04-24T01:53:43.809Z,0.40
2023-04-24T01:54:43.836Z,0.38
2023-04-24T01:55:43.868Z,0.51
2023-04-24T01:56:43.879Z,0.28
2023-04-24T01:57:43.883Z,0.45
2023-04-24T01:58:43.901Z,0.42
2023-04-24T01:59:44.090Z,0.29
2023-04-24T02:00:44.020Z,0.30
2023-04-24T02:01:43.984Z,0.28
2023-04-24T02:02:46.591Z,0.29
2023-04-24T02:03:44.142Z,0.34
2023-04-24T02:04:43.975Z,0.44
2023-04-24T02:05:43.966Z,0.44
2023-04-24T02:06:43.975Z,0.34
2023-04-24T02:07:43.985Z,0.32
2023-04-24T02:08:43.962Z,0.29
2023-04-24T02:09:44.185Z,0.46
2023-04-24T02:10:43.931Z,0.20
2023-04-24T02:11:43.953Z,0.43
2023-04-24T02:12:43.923Z,0.18
2023-04-24T02:13:43.963Z,0.29
2023-04-24T02:14:43.952Z,0.40
2023-04-24T02:15:43.917Z,0.40
2023-04-24T02:16:43.944Z,0.25
2023-04-24T02:17:43.950Z,0.27
2023-04-24T02:18:44.013Z,0.19
2023-04-24T02:19:44.115Z,0.40
2023-04-24T02:20:43.911Z,0.37
2023-04-24T02:21:43.864Z,0.40
2023-04-24T02:22:43.839Z,0.28
2023-04-24T02:23:43.852Z,0.38
2023-04-24T02:24:43.932Z,0.24
2023-04-24T02:25:43.831Z,0.22
2023-04-24T02:26:43.819Z,0.34
2023-04-24T02:27:43.830Z,0.29
2023-04-24T02:28:43.817Z,0.36
2023-04-24T02:29:44.197Z,0.28
2023-04-24T02:30:43.826Z,0.28
2023-04-24T02:31:43.905Z,0.51
2023-04-24T02:32:43.785Z,0.29
2023-04-24T02:33:43.796Z,0.24
2023-04-24T02:34:43.773Z,0.38
2023-04-24T02:35:43.765Z,0.48
2023-04-24T02:36:43.794Z,0.20
2023-04-24T02:37:43.807Z,0.18
2023-04-24T02:38:43.835Z,0.20
2023-04-24T02:39:44.149Z,0.30
2023-04-24T02:40:44.025Z,0.20
2023-04-24T02:41:43.973Z,0.25
2023-04-24T02:42:43.987Z,0.27
2023-04-24T02:43:44.018Z,0.30
2023-04-24T02:44:44.070Z,0.22
2023-04-24T02:45:44.073Z,0.26
2023-04-24T02:46:44.121Z,0.21
2023-04-24T02:47:44.187Z,0.41
2023-04-24T02:48:44.176Z,0.67
2023-04-24T02:49:44.373Z,0.29
2023-04-24T02:50:44.282Z,0.51
2023-04-24T02:51:44.296Z,0.12
2023-04-24T02:52:44.325Z,0.39
2023-04-24T02:53:44.381Z,0.27
2023-04-24T02:54:44.412Z,0.34
2023-04-24T02:55:44.455Z,0.17
2023-04-24T02:56:44.529Z,0.19
2023-04-24T02:57:44.580Z,0.43
2023-04-24T02:58:44.612Z,0.28
2023-04-24T02:59:44.845Z,0.16
2023-04-24T03:00:44.694Z,0.24
2023-04-24T03:01:44.850Z,0.35
2023-04-24T03:02:44.813Z,0.24
2023-04-24T03:03:44.982Z,0.30
2023-04-24T03:04:45.050Z,0.25
2023-04-24T03:05:44.933Z,0.10
2023-04-24T03:06:44.952Z,0.17
2023-04-24T03:07:45.015Z,0.31
2023-04-24T03:08:45.063Z,0.19
2023-04-24T03:09:45.318Z,0.17
2023-04-24T03:10:46.985Z,0.17
2023-04-24T03:11:45.133Z,0.38
2023-04-24T03:12:45.138Z,0.06
2023-04-24T03:13:45.119Z,0.61
2023-04-24T03:14:45.135Z,0.28
2023-04-24T03:15:45.186Z,0.29
2023-04-24T03:16:45.133Z,0.13
2023-04-24T03:17:45.174Z,0.32
2023-04-24T03:18:45.130Z,0.21
2023-04-24T03:19:45.190Z,0.26
2023-04-24T03:20:45.108Z,0.14
2023-04-24T03:21:45.088Z,0.20
2023-04-24T03:22:45.090Z,0.21
2023-04-24T03:23:45.107Z,0.37
2023-04-24T03:24:45.083Z,0.32
2023-04-24T03:25:45.100Z,0.12
2023-04-24T03:26:45.083Z,0.21
2023-04-24T03:27:45.036Z,0.22
2023-04-24T03:28:45.022Z,0.15
2023-04-24T03:29:45.145Z,0.52
2023-04-24T03:30:45.035Z,0.31
2023-04-24T03:31:45.100Z,0.19
2023-04-24T03:32:45.034Z,0.22
2023-04-24T03:33:45.038Z,0.20
2023-04-24T03:34:44.998Z,0.43
2023-04-24T03:35:45.048Z,0.35
2023-04-24T03:36:45.006Z,0.23
2023-04-24T03:37:45.003Z,0.19
2023-04-24T03:38:45.004Z,0.25
2023-04-24T03:39:45.276Z,0.34
2023-04-24T03:40:44.976Z,0.51
2023-04-24T03:41:44.969Z,0.25
2023-04-24T03:42:44.965Z,0.20
2023-04-24T03:43:44.943Z,0.32
2023-04-24T03:44:45.019Z,0.20
2023-04-24T03:45:44.936Z,0.43
2023-04-24T03:46:44.931Z,0.39
2023-04-24T03:47:44.951Z,0.42
2023-04-24T03:48:44.927Z,0.29
2023-04-24T03:49:45.037Z,0.32
2023-04-24T03:50:44.934Z,0.56
2023-04-24T03:51:44.993Z,0.43
2023-04-24T03:52:45.060Z,0.54
2023-04-24T03:53:45.083Z,1.24
2023-04-24T03:54:45.150Z,0.26
2023-04-24T03:55:45.230Z,0.17
2023-04-24T03:56:45.267Z,0.40
2023-04-24T03:57:45.337Z,0.31
2023-04-24T03:58:45.358Z,0.49
2023-04-24T03:59:45.538Z,0.33
2023-04-24T04:00:45.501Z,0.42
2023-04-24T04:01:45.566Z,0.53
2023-04-24T04:02:45.750Z,0.36
2023-04-24T04:03:45.869Z,0.54
2023-04-24T04:04:45.871Z,0.42
2023-04-24T04:05:45.776Z,0.41
2023-04-24T04:06:45.832Z,0.51
2023-04-24T04:07:45.882Z,0.52
2023-04-24T04:08:45.963Z,0.46
2023-04-24T04:09:46.016Z,0.24
2023-04-24T04:10:46.079Z,0.45
2023-04-24T04:11:46.139Z,0.34
2023-04-24T04:12:46.197Z,0.30
2023-04-24T04:13:46.279Z,0.59
2023-04-24T04:14:46.317Z,0.41
2023-04-24T04:15:46.361Z,0.46
2023-04-24T04:16:46.530Z,0.37
2023-04-24T04:17:46.559Z,0.33
2023-04-24T04:18:46.580Z,0.37
2023-04-24T04:19:46.632Z,0.53
2023-04-24T04:20:46.670Z,0.55
2023-04-24T04:21:46.750Z,0.45
2023-04-24T04:22:46.804Z,0.57
2023-04-24T04:23:46.882Z,2.79
2023-04-24T04:24:46.916Z,0.84
2023-04-24T04:25:46.985Z,0.83
2023-04-24T04:26:47.029Z,0.83
2023-04-24T04:27:47.093Z,1.19
2023-04-24T04:28:47.092Z,1.02
2023-04-24T04:29:47.134Z,0.58
2023-04-24T04:30:47.174Z,0.98
2023-04-24T04:31:47.226Z,0.97
2023-04-24T04:32:47.264Z,1.19
2023-04-24T04:33:47.291Z,1.58
2023-04-24T04:34:47.314Z,1.85
2023-04-24T04:35:47.340Z,1.58
2023-04-24T04:36:47.376Z,1.83
2023-04-24T04:37:47.371Z,1.63
2023-04-24T04:38:47.400Z,1.39
2023-04-24T04:39:47.406Z,1.65
2023-04-24T04:40:47.439Z,1.74
2023-04-24T04:41:47.460Z,2.02
2023-04-24T04:42:47.456Z,1.95
2023-04-24T04:43:47.598Z,1.71
2023-04-24T04:44:47.502Z,2.21
2023-04-24T04:45:47.505Z,1.87
2023-04-24T04:46:47.488Z,1.94
2023-04-24T04:47:47.542Z,1.93
2023-04-24T04:48:47.547Z,1.60
2023-04-24T04:49:47.549Z,1.54
2023-04-24T04:50:47.643Z,1.50
2023-04-24T04:51:47.664Z,1.37
2023-04-24T04:52:47.713Z,1.30
2023-04-24T04:53:47.786Z,1.40
2023-04-24T04:54:47.850Z,1.57
2023-04-24T04:55:47.911Z,1.21
2023-04-24T04:56:47.959Z,1.21
2023-04-24T04:57:48.016Z,1.45
2023-04-24T04:58:48.050Z,1.50
2023-04-24T04:59:48.101Z,1.18
2023-04-24T05:00:48.167Z,2.65
2023-04-24T05:01:48.193Z,1.42
2023-04-24T05:02:48.326Z,1.16
2023-04-24T05:03:48.404Z,1.49
2023-04-24T05:04:48.558Z,0.95
2023-04-24T05:05:48.380Z,1.22
2023-04-24T05:06:48.424Z,1.29
2023-04-24T05:07:48.470Z,1.27
2023-04-24T05:08:48.531Z,2.25
2023-04-24T05:09:48.568Z,1.24
2023-04-24T05:10:48.600Z,1.20
2023-04-24T05:11:48.649Z,1.26
2023-04-24T05:12:48.673Z,1.16
2023-04-24T05:13:48.661Z,1.16
2023-04-24T05:14:48.732Z,1.04
2023-04-24T05:15:48.769Z,1.04
2023-04-24T05:16:48.781Z,1.27
2023-04-24T05:17:48.877Z,1.38
2023-04-24T05:18:48.866Z,1.06
2023-04-24T05:19:48.870Z,1.21
2023-04-24T05:20:48.899Z,1.79
2023-04-24T05:21:48.939Z,1.22
2023-04-24T05:22:48.922Z,1.32
2023-04-24T05:23:48.973Z,1.10
2023-04-24T05:24:49.005Z,0.86
2023-04-24T05:25:49.043Z,0.83
2023-04-24T05:26:49.030Z,0.84
2023-04-24T05:27:49.068Z,0.79
2023-04-24T05:28:49.084Z,1.12
2023-04-24T05:29:49.078Z,0.90
2023-04-24T05:30:49.123Z,0.73
2023-04-24T05:31:49.161Z,1.15
2023-04-24T05:32:49.213Z,0.89
2023-04-24T05:33:49.178Z,1.07
2023-04-24T05:34:49.187Z,0.88
2023-04-24T05:35:49.227Z,0.84
2023-04-24T05:36:49.237Z,1.06
2023-04-24T05:37:49.253Z,0.96
2023-04-24T05:38:49.286Z,0.64
2023-04-24T05:39:49.307Z,0.69
2023-04-24T05:40:49.295Z,0.81
2023-04-24T05:41:49.348Z,0.96
2023-04-24T05:42:49.348Z,0.76
2023-04-24T05:43:49.370Z,0.85
2023-04-24T05:44:50.787Z,0.60
2023-04-24T05:45:49.851Z,0.76
2023-04-24T05:46:49.405Z,0.55
2023-04-24T05:47:49.390Z,1.15
2023-04-24T05:48:49.359Z,1.07
2023-04-24T05:49:49.354Z,1.01
2023-04-24T05:50:49.874Z,0.90
2023-04-24T05:51:49.324Z,1.00
2023-04-24T05:52:49.329Z,0.96
2023-04-24T05:53:49.342Z,1.07
2023-04-24T05:54:49.303Z,0.95
2023-04-24T05:55:49.352Z,1.33
2023-04-24T05:56:49.348Z,1.46
2023-04-24T05:57:49.285Z,1.11
2023-04-24T05:58:49.300Z,1.32
2023-04-24T05:59:49.282Z,1.39
2023-04-24T06:00:49.353Z,1.19
2023-04-24T06:01:49.297Z,1.06
2023-04-24T06:02:49.554Z,1.32
2023-04-24T06:03:49.539Z,1.30
2023-04-24T06:04:49.368Z,1.02
2023-04-24T06:05:49.352Z,1.10
2023-04-24T06:06:49.234Z,0.83
2023-04-24T06:07:49.231Z,0.87
2023-04-24T06:08:49.205Z,1.30
2023-04-24T06:09:49.226Z,0.99
2023-04-24T06:10:49.221Z,1.66
2023-04-24T06:11:49.215Z,1.22
2023-04-24T06:12:49.161Z,0.94
2023-04-24T06:13:49.188Z,0.77
2023-04-24T06:14:49.173Z,1.19
2023-04-24T06:15:49.172Z,0.99
2023-04-24T06:16:50.443Z,1.33
2023-04-24T06:17:49.170Z,1.01
2023-04-24T06:18:49.188Z,0.87
2023-04-24T06:19:49.159Z,0.74
2023-04-24T06:20:49.174Z,0.79
2023-04-24T06:21:49.107Z,0.82
2023-04-24T06:22:49.128Z,1.12
2023-04-24T06:23:49.084Z,0.96
2023-04-24T06:24:49.089Z,1.04
2023-04-24T06:25:49.101Z,1.04
2023-04-24T06:26:49.109Z,0.95
2023-04-24T06:27:49.102Z,0.75
2023-04-24T06:28:49.058Z,0.95
2023-04-24T06:29:49.064Z,1.03
2023-04-24T06:30:49.029Z,1.09
2023-04-24T06:31:49.045Z,1.23
2023-04-24T06:32:49.055Z,0.69
2023-04-24T06:33:49.048Z,1.07
2023-04-24T06:34:48.999Z,1.25
2023-04-24T06:35:49.062Z,1.10
2023-04-24T06:36:49.040Z,0.68
2023-04-24T06:37:49.000Z,0.81
2023-04-24T06:38:49.032Z,0.86
2023-04-24T06:39:49.018Z,0.96
2023-04-24T06:40:49.142Z,0.89
2023-04-24T06:41:49.007Z,0.87
2023-04-24T06:42:49.011Z,0.89
2023-04-24T06:43:48.960Z,0.84
2023-04-24T06:44:48.953Z,1.07
2023-04-24T06:45:48.988Z,1.49
2023-04-24T06:46:49.362Z,1.72
2023-04-24T06:47:48.982Z,1.03
2023-04-24T06:48:48.940Z,1.50
2023-04-24T06:49:48.936Z,2.23
2023-04-24T06:50:48.913Z,2.45
2023-04-24T06:51:49.394Z,2.69
2023-04-24T06:52:48.994Z,2.47
2023-04-24T06:53:49.542Z,2.07
2023-04-24T06:54:49.270Z,2.02
2023-04-24T06:55:48.990Z,2.10
2023-04-24T06:56:49.057Z,2.26
2023-04-24T06:57:49.039Z,1.90
2023-04-24T06:58:49.077Z,2.43
2023-04-24T06:59:49.126Z,2.57
2023-04-24T07:00:49.198Z,2.43
2023-04-24T07:01:49.307Z,2.25
2023-04-24T07:02:49.452Z,2.37
2023-04-24T07:03:49.508Z,2.47
2023-04-24T07:04:49.371Z,3.14
2023-04-24T07:05:49.422Z,2.66
2023-04-24T07:06:49.853Z,2.08
2023-04-24T07:07:49.458Z,2.15
2023-04-24T07:08:49.514Z,2.31
2023-04-24T07:09:49.539Z,2.32
2023-04-24T07:10:49.520Z,1.76
2023-04-24T07:11:49.530Z,2.20
2023-04-24T07:12:49.556Z,1.79
2023-04-24T07:13:49.569Z,2.06
2023-04-24T07:14:49.588Z,1.72
2023-04-24T07:15:49.643Z,2.16
2023-04-24T07:16:49.597Z,1.94
2023-04-24T07:17:49.633Z,2.21
2023-04-24T07:18:49.581Z,2.38
2023-04-24T07:19:49.571Z,2.03
2023-04-24T07:20:49.644Z,2.57
2023-04-24T07:21:49.661Z,2.31
2023-04-24T07:22:49.695Z,2.74
2023-04-24T07:23:49.772Z,2.05
2023-04-24T07:24:49.792Z,2.05
2023-04-24T07:25:49.822Z,2.65
2023-04-24T07:26:49.878Z,2.34
2023-04-24T07:27:49.921Z,2.36
2023-04-24T07:28:49.996Z,2.47
2023-04-24T07:29:50.039Z,2.11
2023-04-24T07:30:50.114Z,2.04
2023-04-24T07:31:50.200Z,2.28
2023-04-24T07:32:50.252Z,2.05
2023-04-24T07:33:50.302Z,2.27
2023-04-24T07:34:50.363Z,1.77
2023-04-24T07:35:50.410Z,2.41
2023-04-24T07:36:50.486Z,2.17
2023-04-24T07:37:50.557Z,2.15
2023-04-24T07:38:50.594Z,2.31
2023-04-24T07:39:50.662Z,2.37
2023-04-24T07:40:50.737Z,2.46
2023-04-24T07:41:50.864Z,1.77
2023-04-24T07:42:50.855Z,2.07
2023-04-24T07:43:50.912Z,2.22
2023-04-24T07:44:50.965Z,2.02
2023-04-24T07:45:50.986Z,2.18
2023-04-24T07:46:51.425Z,2.40
2023-04-24T07:47:51.170Z,2.61
2023-04-24T07:49:01.870Z,1.70
2023-04-24T07:49:52.171Z,1.76
2023-04-24T07:50:51.174Z,1.76
2023-04-24T07:51:51.159Z,1.57
2023-04-24T07:52:51.155Z,1.64
2023-04-24T07:53:51.124Z,1.45
2023-04-24T07:54:51.130Z,1.52
2023-04-24T07:55:51.150Z,1.77
2023-04-24T07:56:51.113Z,1.76
2023-04-24T07:57:51.139Z,1.38
2023-04-24T07:58:51.113Z,1.75
2023-04-24T07:59:51.083Z,1.21
2023-04-24T08:00:51.089Z,1.42
2023-04-24T08:01:51.436Z,1.40
2023-04-24T08:02:51.165Z,1.36
2023-04-24T08:03:51.292Z,1.27
2023-04-24T08:04:51.265Z,1.61
2023-04-24T08:05:51.254Z,1.48
2023-04-24T08:06:51.392Z,1.42
2023-04-24T08:07:51.347Z,1.40
2023-04-24T08:08:51.417Z,1.57
2023-04-24T08:09:51.454Z,1.26
2023-04-24T08:10:51.480Z,1.46
2023-04-24T08:11:51.571Z,1.49
2023-04-24T08:12:51.622Z,1.13
2023-04-24T08:13:51.692Z,1.30
2023-04-24T08:14:51.806Z,1.24
2023-04-24T08:15:51.806Z,1.42
2023-04-24T08:16:51.829Z,0.93
2023-04-24T08:17:51.983Z,0.76
2023-04-24T08:18:51.952Z,1.23
2023-04-24T08:19:51.967Z,1.31
2023-04-24T08:20:52.015Z,1.18
2023-04-24T08:21:52.093Z,1.06
2023-04-24T08:22:52.109Z,1.38
2023-04-24T08:23:52.154Z,1.18
2023-04-24T08:24:52.180Z,1.48
2023-04-24T08:25:52.217Z,1.38
2023-04-24T08:26:52.257Z,1.49
2023-04-24T08:27:52.304Z,1.23
2023-04-24T08:28:52.274Z,1.30
2023-04-24T08:29:52.303Z,1.63
2023-04-24T08:30:52.303Z,1.42
2023-04-24T08:31:52.363Z,1.61
2023-04-24T08:32:52.404Z,1.13
2023-04-24T08:33:52.310Z,1.61
2023-04-24T08:34:52.310Z,1.60
2023-04-24T08:35:52.320Z,1.48
2023-04-24T08:36:52.428Z,1.73
2023-04-24T08:37:52.336Z,2.02
2023-04-24T08:38:52.337Z,1.62
2023-04-24T08:39:52.353Z,1.53
2023-04-24T08:40:52.377Z,1.55
2023-04-24T08:41:52.353Z,1.75
2023-04-24T08:42:52.382Z,1.32
2023-04-24T08:43:52.415Z,1.39
2023-04-24T08:44:52.410Z,1.51
2023-04-24T08:45:52.996Z,1.73
2023-04-24T08:46:52.946Z,1.33
2023-04-24T08:47:52.582Z,1.30
2023-04-24T08:48:52.647Z,1.66
2023-04-24T08:49:52.637Z,1.13
2023-04-24T08:50:52.697Z,1.45
2023-04-24T08:51:52.914Z,1.25
2023-04-24T08:52:52.860Z,1.43
2023-04-24T08:53:52.918Z,1.80
2023-04-24T08:54:52.973Z,1.36
2023-04-24T08:55:52.964Z,1.50
2023-04-24T08:56:53.050Z,1.69
2023-04-24T08:57:53.100Z,1.12
2023-04-24T08:58:53.127Z,1.37
2023-04-24T08:59:53.190Z,1.48
2023-04-24T09:00:53.165Z,1.43
2023-04-24T09:01:53.316Z,1.27
2023-04-24T09:02:53.361Z,1.09
2023-04-24T09:03:53.538Z,1.25
2023-04-24T09:04:53.253Z,1.09
2023-04-24T09:05:53.269Z,1.32
2023-04-24T09:06:53.304Z,1.12
2023-04-24T09:07:53.304Z,1.49
2023-04-24T09:08:53.311Z,1.35
2023-04-24T09:09:53.304Z,1.18
2023-04-24T09:10:53.298Z,0.96
2023-04-24T09:11:53.460Z,1.54
2023-04-24T09:12:53.362Z,1.21
2023-04-24T09:13:53.406Z,1.21
2023-04-24T09:14:53.476Z,1.29
2023-04-24T09:15:53.501Z,1.26
2023-04-24T09:16:53.650Z,0.94
2023-04-24T09:17:53.672Z,0.91
2023-04-24T09:18:53.748Z,1.31
2023-04-24T09:19:53.813Z,1.18
2023-04-24T09:20:54.458Z,1.15
2023-04-24T09:21:53.905Z,1.25
2023-04-24T09:22:53.946Z,1.34
2023-04-24T09:23:54.009Z,1.52
2023-04-24T09:24:54.044Z,1.02
2023-04-24T09:25:54.102Z,1.02
2023-04-24T09:26:54.130Z,0.93
2023-04-24T09:27:54.221Z,0.90
2023-04-24T09:28:54.211Z,1.15
2023-04-24T09:29:54.903Z,1.28
2023-04-24T09:30:54.299Z,1.54
2023-04-24T09:31:54.366Z,1.22
2023-04-24T09:32:54.521Z,1.20
2023-04-24T09:33:54.460Z,1.59
2023-04-24T09:34:54.447Z,0.85
2023-04-24T09:35:54.489Z,1.00
2023-04-24T09:36:54.539Z,1.05
2023-04-24T09:37:54.586Z,0.95
2023-04-24T09:38:54.604Z,0.90
2023-04-24T09:39:54.665Z,1.11
2023-04-24T09:40:54.836Z,1.10
2023-04-24T09:41:54.943Z,0.96
2023-04-24T09:42:54.780Z,1.15
2023-04-24T09:43:54.791Z,1.34
2023-04-24T09:45:01.623Z,1.58
2023-04-24T09:45:58.037Z,0.99
2023-04-24T09:46:54.915Z,1.03
2023-04-24T09:47:54.870Z,0.92
2023-04-24T09:48:54.783Z,1.00
2023-04-24T09:49:54.798Z,1.26
2023-04-24T09:50:54.806Z,0.97
2023-04-24T09:51:54.969Z,1.36
2023-04-24T09:52:54.788Z,0.94
2023-04-24T09:53:54.779Z,1.35
2023-04-24T09:54:54.761Z,0.75
2023-04-24T09:55:54.751Z,0.86
2023-04-24T09:56:54.765Z,1.20
2023-04-24T09:57:54.750Z,0.91
2023-04-24T09:58:54.729Z,0.84
2023-04-24T09:59:54.737Z,1.27
2023-04-24T10:00:54.706Z,0.93
2023-04-24T10:01:54.828Z,0.60
2023-04-24T10:02:54.754Z,0.66
2023-04-24T10:03:54.721Z,0.70
2023-04-24T10:04:54.777Z,0.94
2023-04-24T10:05:54.672Z,0.98
2023-04-24T10:06:54.663Z,0.66
2023-04-24T10:07:54.683Z,0.93
2023-04-24T10:08:54.691Z,0.71
2023-04-24T10:09:54.673Z,0.87
2023-04-24T10:10:54.694Z,0.88
2023-04-24T10:11:54.709Z,0.86
2023-04-24T10:12:54.647Z,1.03
2023-04-24T10:13:54.639Z,1.06
2023-04-24T10:14:54.641Z,0.62
2023-04-24T10:15:54.638Z,0.66
2023-04-24T10:16:54.657Z,0.81
2023-04-24T10:17:54.644Z,0.93
2023-04-24T10:18:54.613Z,0.90
2023-04-24T10:19:54.619Z,0.57
2023-04-24T10:20:54.609Z,0.56
2023-04-24T10:21:54.708Z,0.89
2023-04-24T10:22:54.734Z,0.76
2023-04-24T10:23:54.813Z,0.89
2023-04-24T10:24:54.865Z,0.78
2023-04-24T10:25:54.925Z,0.73
2023-04-24T10:26:54.975Z,0.76
2023-04-24T10:27:55.051Z,0.85
2023-04-24T10:28:55.092Z,0.51
2023-04-24T10:29:55.162Z,0.70
2023-04-24T10:30:55.229Z,1.32
2023-04-24T10:31:55.339Z,0.45
2023-04-24T10:32:55.394Z,0.69
2023-04-24T10:33:55.457Z,0.69
2023-04-24T10:34:55.606Z,1.01
2023-04-24T10:35:55.570Z,0.76
2023-04-24T10:36:57.854Z,0.63
2023-04-24T10:37:55.809Z,0.51
2023-04-24T10:38:55.875Z,0.70
2023-04-24T10:39:55.897Z,0.81
2023-04-24T10:40:55.995Z,0.53
2023-04-24T10:41:56.065Z,0.74
2023-04-24T10:42:58.125Z,0.85
2023-04-24T10:43:56.075Z,0.53
2023-04-24T10:44:56.192Z,0.42
2023-04-24T10:45:56.085Z,1.02
2023-04-24T10:46:56.510Z,0.57
2023-04-24T10:47:56.085Z,0.59
2023-04-24T10:48:56.099Z,0.61
2023-04-24T10:49:56.066Z,0.51
2023-04-24T10:50:56.058Z,0.53
2023-04-24T10:51:56.023Z,0.42
2023-04-24T10:52:56.982Z,1.06
2023-04-24T10:53:56.015Z,0.64
2023-04-24T10:54:56.168Z,0.77
2023-04-24T10:55:56.003Z,0.37
2023-04-24T10:56:56.007Z,0.57
2023-04-24T10:57:56.041Z,0.49
2023-04-24T10:58:55.991Z,0.65
2023-04-24T10:59:56.126Z,0.90
2023-04-24T11:00:56.033Z,0.39
2023-04-24T11:01:56.005Z,0.93
2023-04-24T11:02:56.038Z,0.49
2023-04-24T11:03:56.045Z,0.50
2023-04-24T11:04:56.201Z,0.64
2023-04-24T11:05:55.950Z,0.72
2023-04-24T11:06:55.958Z,0.37
2023-04-24T11:07:55.922Z,0.50
2023-04-24T11:08:55.938Z,0.56
2023-04-24T11:09:55.897Z,0.53
2023-04-24T11:10:55.907Z,0.43
2023-04-24T11:11:55.925Z,0.35
2023-04-24T11:12:55.886Z,0.58
2023-04-24T11:13:55.914Z,0.57
2023-04-24T11:14:55.937Z,0.69
2023-04-24T11:15:55.848Z,0.43
2023-04-24T11:16:56.076Z,0.29
2023-04-24T11:17:55.954Z,0.60
2023-04-24T11:18:55.972Z,0.50
2023-04-24T11:19:56.316Z,0.45
2023-04-24T11:20:56.138Z,0.44
2023-04-24T11:21:56.178Z,0.47
2023-04-24T11:22:56.508Z,0.41
2023-04-24T11:23:56.306Z,0.35
2023-04-24T11:24:56.560Z,0.51
2023-04-24T11:25:56.418Z,0.63
2023-04-24T11:26:56.497Z,0.62
2023-04-24T11:27:56.561Z,0.41
2023-04-24T11:28:56.656Z,0.54
2023-04-24T11:29:57.059Z,0.50
2023-04-24T11:30:56.736Z,0.37
2023-04-24T11:31:57.007Z,0.51
2023-04-24T11:32:56.893Z,0.71
2023-04-24T11:33:56.927Z,0.48
2023-04-24T11:34:56.968Z,0.42
2023-04-24T11:35:57.029Z,0.41
2023-04-24T11:36:57.467Z,0.59
2023-04-24T11:38:12.332Z,0.63
2023-04-24T11:38:58.159Z,0.45
2023-04-24T11:39:57.322Z,0.52
2023-04-24T11:40:57.134Z,0.52
2023-04-24T11:41:57.126Z,0.70
2023-04-24T11:42:57.214Z,0.46
2023-04-24T11:43:58.216Z,0.57
2023-04-24T11:44:57.242Z,0.39
2023-04-24T11:45:57.097Z,0.81
2023-04-24T11:46:57.084Z,0.43
2023-04-24T11:47:57.143Z,0.61
2023-04-24T11:48:57.181Z,0.57
2023-04-24T11:49:57.369Z,0.73
2023-04-24T11:50:57.290Z,0.50
2023-04-24T11:51:59.128Z,0.75
2023-04-24T11:52:57.471Z,0.75
2023-04-24T11:54:03.559Z,0.61
2023-04-24T11:54:58.566Z,0.63
2023-04-24T11:55:57.285Z,0.71
2023-04-24T11:56:57.332Z,0.63
2023-04-24T11:57:57.355Z,0.66
2023-04-24T11:58:57.302Z,0.50
2023-04-24T11:59:57.303Z,0.90
2023-04-24T12:00:57.317Z,0.71
2023-04-24T12:01:57.272Z,0.77
2023-04-24T12:02:57.388Z,0.90
2023-04-24T12:03:57.439Z,0.62
2023-04-24T12:04:57.851Z,0.62
2023-04-24T12:05:57.353Z,0.94
2023-04-24T12:06:57.255Z,0.60
2023-04-24T12:07:57.268Z,0.63
2023-04-24T12:09:01.756Z,0.94
2023-04-24T12:09:58.483Z,0.91
2023-04-24T12:10:57.239Z,0.85
2023-04-24T12:11:57.232Z,0.96
2023-04-24T12:12:57.198Z,0.84
2023-04-24T12:13:57.191Z,0.98
2023-04-24T12:14:57.383Z,0.74
2023-04-24T12:15:57.205Z,1.09
2023-04-24T12:16:57.180Z,0.77
2023-04-24T12:17:57.601Z,0.70
2023-04-24T12:18:57.149Z,0.83
2023-04-24T12:19:57.175Z,0.94
2023-04-24T12:21:01.243Z,0.92
2023-04-24T12:21:57.162Z,1.24
2023-04-24T12:22:57.160Z,0.90
2023-04-24T12:23:57.136Z,0.84
2023-04-24T12:24:57.135Z,0.99
2023-04-24T12:25:57.120Z,1.04
2023-04-24T12:26:57.120Z,1.03
2023-04-24T12:27:57.128Z,1.30
2023-04-24T12:28:57.086Z,0.97
2023-04-24T12:29:57.136Z,0.83
2023-04-24T12:30:57.097Z,1.34
2023-04-24T12:31:57.083Z,0.65
2023-04-24T12:32:57.133Z,1.07
2023-04-24T12:33:57.052Z,0.82
2023-04-24T12:34:57.053Z,0.81
2023-04-24T12:35:57.120Z,0.48
2023-04-24T12:36:57.063Z,0.58
2023-04-24T12:37:57.071Z,0.80
2023-04-24T12:38:57.054Z,0.51
2023-04-24T12:39:57.007Z,0.69
2023-04-24T12:40:56.996Z,0.47
2023-04-24T12:41:57.060Z,0.63
2023-04-24T12:42:58.095Z,0.75
2023-04-24T12:43:56.982Z,0.97
2023-04-24T12:44:57.022Z,0.97
2023-04-24T12:45:57.000Z,0.66
2023-04-24T12:46:56.999Z,0.59
2023-04-24T12:47:57.031Z,0.66
2023-04-24T12:48:56.987Z,0.48
2023-04-24T12:49:56.960Z,0.47
2023-04-24T12:50:56.956Z,0.62
2023-04-24T12:51:56.952Z,0.46
2023-04-24T12:52:56.936Z,1.01
2023-04-24T12:53:56.931Z,0.43
2023-04-24T12:54:56.937Z,0.86
2023-04-24T12:55:56.922Z,0.62
2023-04-24T12:56:56.892Z,0.54
2023-04-24T12:57:56.893Z,0.41
2023-04-24T12:58:56.929Z,0.64
2023-04-24T12:59:56.865Z,0.37
2023-04-24T13:00:56.928Z,0.29
2023-04-24T13:01:56.920Z,0.47
2023-04-24T13:02:56.950Z,0.44
2023-04-24T13:03:56.977Z,0.57
2023-04-24T13:04:56.849Z,0.41
2023-04-24T13:05:56.861Z,0.54
2023-04-24T13:06:56.870Z,0.59
2023-04-24T13:07:56.880Z,0.59
2023-04-24T13:08:56.819Z,0.32
2023-04-24T13:09:56.845Z,0.74
2023-04-24T13:10:56.797Z,0.52
2023-04-24T13:11:56.789Z,0.42
2023-04-24T13:12:56.813Z,0.34
2023-04-24T13:13:56.819Z,0.28
2023-04-24T13:14:56.785Z,0.70
2023-04-24T13:15:56.774Z,0.62
2023-04-24T13:16:56.846Z,0.65
2023-04-24T13:17:56.860Z,0.45
2023-04-24T13:18:56.873Z,0.24